sensor_id;sensor_type;location;lat;lon;timestamp;P1;durP1;ratioP1;P2;durP2;ratioP2
39740;SDS011;25426;53.478;10.190;2022-07-01T00:00:51;11.57;;;10.48;;
39740;SDS011;25426;53.478;10.190;2022-07-01T00:03:21;10.00;;;9.00;;
39740;SDS011;25426;53.478;10.190;2022-07-01T00:05:52;10.55;;;9.52;;
39740;SDS011;25426;53.478;10.190;2022-07-01T00:08:23;11.88;;;10.75;;
39740;SDS011;25426;53.478;10.190;2022-07-01T00:10:54;10.32;;;9.43;;
39740;SDS011;25426;53.478;10.190;2022-07-01T00:13:25;10.13;;;9.15;;
39740;SDS011;25426;53.478;10.190;2022-07-01T00:15:55;7.40;;;6.80;;
39740;SDS011;25426;53.478;10.190;2022-07-01T00:18:26;6.03;;;5.53;;
39740;SDS011;25426;53.478;10.190;2022-07-01T00:20:57;5.05;;;4.50;;
39740;SDS011;25426;53.478;10.190;2022-07-01T00:23:30;4.50;;;4.10;;
39740;SDS011;25426;53.478;10.190;2022-07-01T00:26:01;5.00;;;2.70;;
39740;SDS011;25426;53.478;10.190;2022-07-01T00:28:32;4.25;;;3.13;;
39740;SDS011;25426;53.478;10.190;2022-07-01T00:31:03;6.88;;;3.30;;
39740;SDS011;25426;53.478;10.190;2022-07-01T00:33:34;4.85;;;2.78;;
39740;SDS011;25426;53.478;10.190;2022-07-01T00:36:04;5.28;;;2.78;;
39740;SDS011;25426;53.478;10.190;2022-07-01T00:38:35;3.67;;;3.35;;
39740;SDS011;25426;53.478;10.190;2022-07-01T00:41:06;5.63;;;3.42;;
39740;SDS011;25426;53.478;10.190;2022-07-01T00:43:37;22.60;;;9.32;;
39740;SDS011;25426;53.478;10.190;2022-07-01T00:46:08;24.83;;;9.65;;
39740;SDS011;25426;53.478;10.190;2022-07-01T00:48:39;11.30;;;7.38;;
39740;SDS011;25426;53.478;10.190;2022-07-01T00:51:10;15.38;;;7.82;;
39740;SDS011;25426;53.478;10.190;2022-07-01T00:53:41;10.25;;;6.63;;
39740;SDS011;25426;53.478;10.190;2022-07-01T00:56:12;18.33;;;8.15;;
39740;SDS011;25426;53.478;10.190;2022-07-01T00:58:44;17.52;;;8.85;;
39740;SDS011;25426;53.478;10.190;2022-07-01T01:01:15;20.67;;;8.13;;
39740;SDS011;25426;53.478;10.190;2022-07-01T01:03:46;18.33;;;10.55;;
39740;SDS011;25426;53.478;10.190;2022-07-01T01:06:17;17.52;;;9.52;;
39740;SDS011;25426;53.478;10.190;2022-07-01T01:08:48;14.88;;;8.60;;
39740;SDS011;25426;53.478;10.190;2022-07-01T01:11:19;15.20;;;9.57;;
39740;SDS011;25426;53.478;10.190;2022-07-01T01:13:50;15.05;;;8.13;;
39740;SDS011;25426;53.478;10.190;2022-07-01T01:16:21;13.88;;;7.28;;
39740;SDS011;25426;53.478;10.190;2022-07-01T01:18:52;11.95;;;8.02;;
39740;SDS011;25426;53.478;10.190;2022-07-01T01:21:23;13.30;;;7.80;;
39740;SDS011;25426;53.478;10.190;2022-07-01T01:23:55;9.38;;;7.35;;
39740;SDS011;25426;53.478;10.190;2022-07-01T01:26:27;12.07;;;9.43;;
39740;SDS011;25426;53.478;10.190;2022-07-01T01:28:58;15.07;;;8.52;;
39740;SDS011;25426;53.478;10.190;2022-07-01T01:31:29;12.65;;;8.93;;
39740;SDS011;25426;53.478;10.190;2022-07-01T01:34:03;10.25;;;7.78;;
39740;SDS011;25426;53.478;10.190;2022-07-01T01:36:34;11.02;;;7.82;;
39740;SDS011;25426;53.478;10.190;2022-07-01T01:39:04;10.10;;;7.78;;
39740;SDS011;25426;53.478;10.190;2022-07-01T01:41:44;12.15;;;8.13;;
39740;SDS011;25426;53.478;10.190;2022-07-01T01:44:16;12.02;;;7.95;;
39740;SDS011;25426;53.478;10.190;2022-07-01T01:46:46;10.55;;;8.32;;
39740;SDS011;25426;53.478;10.190;2022-07-01T01:49:17;12.10;;;8.65;;
39740;SDS011;25426;53.478;10.190;2022-07-01T01:51:48;13.45;;;8.23;;
39740;SDS011;25426;53.478;10.190;2022-07-01T01:54:19;9.88;;;8.32;;
39740;SDS011;25426;53.478;10.190;2022-07-01T01:56:50;13.50;;;7.90;;
39740;SDS011;25426;53.478;10.190;2022-07-01T01:59:20;15.65;;;8.65;;
39740;SDS011;25426;53.478;10.190;2022-07-01T02:01:51;10.85;;;8.88;;
39740;SDS011;25426;53.478;10.190;2022-07-01T02:04:22;12.50;;;8.70;;
39740;SDS011;25426;53.478;10.190;2022-07-01T02:06:53;10.50;;;8.75;;
39740;SDS011;25426;53.478;10.190;2022-07-01T02:09:24;12.10;;;9.57;;
39740;SDS011;25426;53.478;10.190;2022-07-01T02:11:55;12.43;;;9.73;;
39740;SDS011;25426;53.478;10.190;2022-07-01T02:14:26;12.77;;;9.05;;
39740;SDS011;25426;53.478;10.190;2022-07-01T02:16:57;16.35;;;10.15;;
39740;SDS011;25426;53.478;10.190;2022-07-01T02:19:28;14.02;;;9.75;;
39740;SDS011;25426;53.478;10.190;2022-07-01T02:21:59;11.65;;;10.25;;
39740;SDS011;25426;53.478;10.190;2022-07-01T02:24:29;15.65;;;10.35;;
39740;SDS011;25426;53.478;10.190;2022-07-01T02:27:00;19.00;;;12.20;;
39740;SDS011;25426;53.478;10.190;2022-07-01T02:29:31;16.08;;;11.02;;
39740;SDS011;25426;53.478;10.190;2022-07-01T02:32:02;13.95;;;11.43;;
39740;SDS011;25426;53.478;10.190;2022-07-01T02:34:33;12.52;;;10.75;;
39740;SDS011;25426;53.478;10.190;2022-07-01T02:37:04;12.95;;;9.02;;
39740;SDS011;25426;53.478;10.190;2022-07-01T02:39:35;13.50;;;10.63;;
39740;SDS011;25426;53.478;10.190;2022-07-01T02:42:05;13.30;;;9.23;;
39740;SDS011;25426;53.478;10.190;2022-07-01T02:44:55;15.40;;;11.52;;
39740;SDS011;25426;53.478;10.190;2022-07-01T02:47:30;11.70;;;9.65;;
39740;SDS011;25426;53.478;10.190;2022-07-01T02:50:03;15.43;;;11.00;;
39740;SDS011;25426;53.478;10.190;2022-07-01T02:52:36;12.27;;;10.63;;
39740;SDS011;25426;53.478;10.190;2022-07-01T02:55:09;13.57;;;11.68;;
39740;SDS011;25426;53.478;10.190;2022-07-01T02:57:42;10.82;;;9.23;;
39740;SDS011;25426;53.478;10.190;2022-07-01T03:00:13;10.88;;;8.73;;
39740;SDS011;25426;53.478;10.190;2022-07-01T03:02:45;12.65;;;10.60;;
39740;SDS011;25426;53.478;10.190;2022-07-01T03:05:16;13.75;;;11.13;;
39740;SDS011;25426;53.478;10.190;2022-07-01T03:07:47;13.90;;;11.27;;
39740;SDS011;25426;53.478;10.190;2022-07-01T03:10:17;16.52;;;12.90;;
39740;SDS011;25426;53.478;10.190;2022-07-01T03:12:48;25.10;;;15.25;;
39740;SDS011;25426;53.478;10.190;2022-07-01T03:15:19;22.90;;;16.40;;
39740;SDS011;25426;53.478;10.190;2022-07-01T03:17:50;22.27;;;16.23;;
39740;SDS011;25426;53.478;10.190;2022-07-01T03:20:21;22.98;;;16.73;;
39740;SDS011;25426;53.478;10.190;2022-07-01T03:22:51;21.02;;;13.88;;
39740;SDS011;25426;53.478;10.190;2022-07-01T03:25:22;19.70;;;14.02;;
39740;SDS011;25426;53.478;10.190;2022-07-01T03:27:53;16.25;;;13.15;;
39740;SDS011;25426;53.478;10.190;2022-07-01T03:30:24;16.95;;;12.43;;
39740;SDS011;25426;53.478;10.190;2022-07-01T03:32:54;13.30;;;11.77;;
39740;SDS011;25426;53.478;10.190;2022-07-01T03:35:25;13.35;;;10.90;;
39740;SDS011;25426;53.478;10.190;2022-07-01T03:38:05;11.50;;;10.25;;
39740;SDS011;25426;53.478;10.190;2022-07-01T03:40:37;10.63;;;9.27;;
39740;SDS011;25426;53.478;10.190;2022-07-01T03:43:08;10.07;;;9.18;;
39740;SDS011;25426;53.478;10.190;2022-07-01T03:45:39;13.93;;;9.27;;
39740;SDS011;25426;53.478;10.190;2022-07-01T03:48:10;10.95;;;8.77;;
39740;SDS011;25426;53.478;10.190;2022-07-01T03:50:41;10.38;;;9.27;;
39740;SDS011;25426;53.478;10.190;2022-07-01T03:53:12;12.05;;;9.30;;
39740;SDS011;25426;53.478;10.190;2022-07-01T03:56:01;10.85;;;9.75;;
39740;SDS011;25426;53.478;10.190;2022-07-01T03:58:32;9.57;;;8.57;;
39740;SDS011;25426;53.478;10.190;2022-07-01T04:01:02;12.85;;;9.00;;
39740;SDS011;25426;53.478;10.190;2022-07-01T04:03:33;9.75;;;8.60;;
39740;SDS011;25426;53.478;10.190;2022-07-01T04:06:04;12.82;;;11.27;;
39740;SDS011;25426;53.478;10.190;2022-07-01T04:08:35;12.70;;;11.43;;
39740;SDS011;25426;53.478;10.190;2022-07-01T04:11:06;13.35;;;12.13;;
39740;SDS011;25426;53.478;10.190;2022-07-01T04:13:39;14.77;;;13.40;;
39740;SDS011;25426;53.478;10.190;2022-07-01T04:16:09;15.68;;;14.07;;
39740;SDS011;25426;53.478;10.190;2022-07-01T04:18:40;15.63;;;14.10;;
39740;SDS011;25426;53.478;10.190;2022-07-01T04:21:11;16.60;;;14.90;;
39740;SDS011;25426;53.478;10.190;2022-07-01T04:24:00;17.67;;;15.98;;
39740;SDS011;25426;53.478;10.190;2022-07-01T04:26:31;17.13;;;15.48;;
39740;SDS011;25426;53.478;10.190;2022-07-01T04:29:02;18.25;;;16.55;;
39740;SDS011;25426;53.478;10.190;2022-07-01T04:31:34;17.02;;;15.32;;
39740;SDS011;25426;53.478;10.190;2022-07-01T04:34:06;17.55;;;15.85;;
39740;SDS011;25426;53.478;10.190;2022-07-01T04:36:38;17.42;;;15.70;;
39740;SDS011;25426;53.478;10.190;2022-07-01T04:39:08;18.02;;;16.25;;
39740;SDS011;25426;53.478;10.190;2022-07-01T04:41:39;15.50;;;14.10;;
39740;SDS011;25426;53.478;10.190;2022-07-01T04:44:30;14.68;;;12.25;;
39740;SDS011;25426;53.478;10.190;2022-07-01T04:47:03;12.90;;;11.60;;
39740;SDS011;25426;53.478;10.190;2022-07-01T04:49:34;11.77;;;10.80;;
39740;SDS011;25426;53.478;10.190;2022-07-01T04:52:05;11.50;;;10.43;;
39740;SDS011;25426;53.478;10.190;2022-07-01T04:54:36;9.30;;;8.20;;
39740;SDS011;25426;53.478;10.190;2022-07-01T04:57:07;9.85;;;9.05;;
39740;SDS011;25426;53.478;10.190;2022-07-01T04:59:38;9.15;;;8.25;;
39740;SDS011;25426;53.478;10.190;2022-07-01T05:02:08;9.05;;;8.25;;
39740;SDS011;25426;53.478;10.190;2022-07-01T05:04:39;11.35;;;10.35;;
39740;SDS011;25426;53.478;10.190;2022-07-01T05:07:10;10.52;;;9.60;;
39740;SDS011;25426;53.478;10.190;2022-07-01T05:09:57;10.85;;;9.77;;
39740;SDS011;25426;53.478;10.190;2022-07-01T05:12:29;11.75;;;10.43;;
39740;SDS011;25426;53.478;10.190;2022-07-01T05:14:59;14.25;;;11.90;;
39740;SDS011;25426;53.478;10.190;2022-07-01T05:17:30;12.70;;;11.35;;
39740;SDS011;25426;53.478;10.190;2022-07-01T05:20:20;11.27;;;10.07;;
39740;SDS011;25426;53.478;10.190;2022-07-01T05:23:10;15.32;;;11.98;;
39740;SDS011;25426;53.478;10.190;2022-07-01T05:25:40;18.13;;;12.85;;
39740;SDS011;25426;53.478;10.190;2022-07-01T05:28:11;20.58;;;12.85;;
39740;SDS011;25426;53.478;10.190;2022-07-01T05:30:42;18.58;;;12.38;;
39740;SDS011;25426;53.478;10.190;2022-07-01T05:33:13;12.23;;;10.90;;
39740;SDS011;25426;53.478;10.190;2022-07-01T05:35:44;15.23;;;11.50;;
39740;SDS011;25426;53.478;10.190;2022-07-01T05:38:15;20.65;;;11.50;;
39740;SDS011;25426;53.478;10.190;2022-07-01T05:40:45;12.77;;;8.90;;
39740;SDS011;25426;53.478;10.190;2022-07-01T05:43:16;11.07;;;6.97;;
39740;SDS011;25426;53.478;10.190;2022-07-01T05:45:47;11.02;;;6.28;;
39740;SDS011;25426;53.478;10.190;2022-07-01T05:48:18;10.48;;;6.05;;
39740;SDS011;25426;53.478;10.190;2022-07-01T05:50:52;7.63;;;5.28;;
39740;SDS011;25426;53.478;10.190;2022-07-01T05:53:23;11.95;;;6.35;;
39740;SDS011;25426;53.478;10.190;2022-07-01T05:55:54;8.38;;;5.80;;
39740;SDS011;25426;53.478;10.190;2022-07-01T05:58:24;12.93;;;4.10;;
39740;SDS011;25426;53.478;10.190;2022-07-01T06:00:55;7.88;;;3.85;;
39740;SDS011;25426;53.478;10.190;2022-07-01T06:03:26;8.05;;;3.38;;
39740;SDS011;25426;53.478;10.190;2022-07-01T06:05:57;12.52;;;4.35;;
39740;SDS011;25426;53.478;10.190;2022-07-01T06:08:27;5.47;;;4.03;;
39740;SDS011;25426;53.478;10.190;2022-07-01T06:10:58;7.30;;;3.83;;
39740;SDS011;25426;53.478;10.190;2022-07-01T06:13:29;10.05;;;4.00;;
39740;SDS011;25426;53.478;10.190;2022-07-01T06:16:00;6.28;;;3.50;;
39740;SDS011;25426;53.478;10.190;2022-07-01T06:18:31;9.75;;;2.97;;
39740;SDS011;25426;53.478;10.190;2022-07-01T06:21:02;6.88;;;3.78;;
39740;SDS011;25426;53.478;10.190;2022-07-01T06:23:33;5.40;;;3.45;;
39740;SDS011;25426;53.478;10.190;2022-07-01T06:26:04;9.75;;;3.75;;
39740;SDS011;25426;53.478;10.190;2022-07-01T06:28:34;6.82;;;3.40;;
39740;SDS011;25426;53.478;10.190;2022-07-01T06:31:05;11.75;;;3.40;;
39740;SDS011;25426;53.478;10.190;2022-07-01T06:33:36;7.75;;;3.35;;
39740;SDS011;25426;53.478;10.190;2022-07-01T06:36:07;5.97;;;2.90;;
39740;SDS011;25426;53.478;10.190;2022-07-01T06:38:38;6.40;;;2.90;;
39740;SDS011;25426;53.478;10.190;2022-07-01T06:41:08;7.45;;;2.72;;
39740;SDS011;25426;53.478;10.190;2022-07-01T06:43:59;5.10;;;2.78;;
39740;SDS011;25426;53.478;10.190;2022-07-01T06:46:31;8.45;;;3.75;;
39740;SDS011;25426;53.478;10.190;2022-07-01T06:49:02;5.47;;;3.60;;
39740;SDS011;25426;53.478;10.190;2022-07-01T06:51:33;6.45;;;3.63;;
39740;SDS011;25426;53.478;10.190;2022-07-01T06:54:04;7.75;;;3.38;;
39740;SDS011;25426;53.478;10.190;2022-07-01T06:56:35;4.63;;;3.17;;
39740;SDS011;25426;53.478;10.190;2022-07-01T06:59:06;7.13;;;4.07;;
39740;SDS011;25426;53.478;10.190;2022-07-01T07:01:37;6.10;;;4.05;;
39740;SDS011;25426;53.478;10.190;2022-07-01T07:04:08;8.18;;;4.70;;
39740;SDS011;25426;53.478;10.190;2022-07-01T07:06:39;4.28;;;3.80;;
39740;SDS011;25426;53.478;10.190;2022-07-01T07:09:09;5.65;;;3.40;;
39740;SDS011;25426;53.478;10.190;2022-07-01T07:11:40;5.00;;;3.55;;
39740;SDS011;25426;53.478;10.190;2022-07-01T07:14:11;6.28;;;3.33;;
39740;SDS011;25426;53.478;10.190;2022-07-01T07:16:43;2.67;;;2.20;;
39740;SDS011;25426;53.478;10.190;2022-07-01T07:19:14;2.58;;;2.30;;
39740;SDS011;25426;53.478;10.190;2022-07-01T07:21:44;2.28;;;2.08;;
39740;SDS011;25426;53.478;10.190;2022-07-01T07:24:15;5.95;;;3.25;;
39740;SDS011;25426;53.478;10.190;2022-07-01T07:26:46;7.03;;;3.70;;
39740;SDS011;25426;53.478;10.190;2022-07-01T07:29:17;5.25;;;3.42;;
39740;SDS011;25426;53.478;10.190;2022-07-01T07:31:48;5.13;;;3.10;;
39740;SDS011;25426;53.478;10.190;2022-07-01T07:34:19;5.30;;;3.50;;
39740;SDS011;25426;53.478;10.190;2022-07-01T07:36:50;4.65;;;4.10;;
39740;SDS011;25426;53.478;10.190;2022-07-01T07:39:20;4.80;;;4.28;;
39740;SDS011;25426;53.478;10.190;2022-07-01T07:41:51;4.63;;;3.45;;
39740;SDS011;25426;53.478;10.190;2022-07-01T07:44:22;4.78;;;3.20;;
39740;SDS011;25426;53.478;10.190;2022-07-01T07:46:53;4.18;;;3.08;;
39740;SDS011;25426;53.478;10.190;2022-07-01T07:49:24;4.32;;;3.20;;
39740;SDS011;25426;53.478;10.190;2022-07-01T07:51:55;5.22;;;2.60;;
39740;SDS011;25426;53.478;10.190;2022-07-01T07:54:26;3.08;;;2.53;;
39740;SDS011;25426;53.478;10.190;2022-07-01T07:56:57;4.97;;;3.08;;
39740;SDS011;25426;53.478;10.190;2022-07-01T07:59:27;6.40;;;3.15;;
39740;SDS011;25426;53.478;10.190;2022-07-01T08:01:58;3.67;;;2.28;;
39740;SDS011;25426;53.478;10.190;2022-07-01T08:04:29;3.88;;;2.50;;
39740;SDS011;25426;53.478;10.190;2022-07-01T08:07:00;3.30;;;1.90;;
39740;SDS011;25426;53.478;10.190;2022-07-01T08:09:31;5.25;;;2.38;;
39740;SDS011;25426;53.478;10.190;2022-07-01T08:12:04;3.22;;;2.03;;
39740;SDS011;25426;53.478;10.190;2022-07-01T08:14:35;3.17;;;2.03;;
39740;SDS011;25426;53.478;10.190;2022-07-01T08:17:06;6.13;;;2.85;;
39740;SDS011;25426;53.478;10.190;2022-07-01T08:19:36;2.42;;;2.20;;
39740;SDS011;25426;53.478;10.190;2022-07-01T08:22:07;5.03;;;2.35;;
39740;SDS011;25426;53.478;10.190;2022-07-01T08:24:38;2.78;;;2.55;;
39740;SDS011;25426;53.478;10.190;2022-07-01T08:27:09;3.38;;;2.38;;
39740;SDS011;25426;53.478;10.190;2022-07-01T08:29:40;3.88;;;2.35;;
39740;SDS011;25426;53.478;10.190;2022-07-01T08:32:11;5.82;;;2.28;;
39740;SDS011;25426;53.478;10.190;2022-07-01T08:34:41;3.35;;;2.35;;
39740;SDS011;25426;53.478;10.190;2022-07-01T08:37:12;3.03;;;2.25;;
39740;SDS011;25426;53.478;10.190;2022-07-01T08:39:43;3.10;;;2.63;;
39740;SDS011;25426;53.478;10.190;2022-07-01T08:42:14;6.82;;;2.70;;
39740;SDS011;25426;53.478;10.190;2022-07-01T08:44:45;4.40;;;2.65;;
39740;SDS011;25426;53.478;10.190;2022-07-01T08:47:15;3.83;;;2.58;;
39740;SDS011;25426;53.478;10.190;2022-07-01T08:49:46;5.15;;;2.50;;
39740;SDS011;25426;53.478;10.190;2022-07-01T08:52:17;4.90;;;2.80;;
39740;SDS011;25426;53.478;10.190;2022-07-01T08:54:48;3.53;;;2.75;;
39740;SDS011;25426;53.478;10.190;2022-07-01T08:57:20;3.35;;;2.80;;
39740;SDS011;25426;53.478;10.190;2022-07-01T09:00:28;3.55;;;2.88;;
39740;SDS011;25426;53.478;10.190;2022-07-01T09:05:24;4.82;;;3.35;;
39740;SDS011;25426;53.478;10.190;2022-07-01T09:07:58;4.22;;;2.88;;
39740;SDS011;25426;53.478;10.190;2022-07-01T09:10:34;3.17;;;2.70;;
39740;SDS011;25426;53.478;10.190;2022-07-01T09:13:06;4.07;;;2.83;;
39740;SDS011;25426;53.478;10.190;2022-07-01T09:15:39;2.83;;;2.50;;
39740;SDS011;25426;53.478;10.190;2022-07-01T09:18:12;2.70;;;2.38;;
39740;SDS011;25426;53.478;10.190;2022-07-01T09:20:46;3.40;;;2.72;;
39740;SDS011;25426;53.478;10.190;2022-07-01T09:23:18;2.60;;;2.40;;
39740;SDS011;25426;53.478;10.190;2022-07-01T09:25:50;3.28;;;2.75;;
39740;SDS011;25426;53.478;10.190;2022-07-01T09:28:22;5.70;;;2.80;;
39740;SDS011;25426;53.478;10.190;2022-07-01T09:30:57;3.03;;;2.60;;
39740;SDS011;25426;53.478;10.190;2022-07-01T09:33:29;3.13;;;2.85;;
39740;SDS011;25426;53.478;10.190;2022-07-01T09:36:00;3.45;;;3.10;;
39740;SDS011;25426;53.478;10.190;2022-07-01T09:38:30;3.38;;;2.60;;
39740;SDS011;25426;53.478;10.190;2022-07-01T09:41:02;4.03;;;3.42;;
39740;SDS011;25426;53.478;10.190;2022-07-01T09:43:34;4.20;;;3.40;;
39740;SDS011;25426;53.478;10.190;2022-07-01T09:46:06;4.18;;;3.00;;
39740;SDS011;25426;53.478;10.190;2022-07-01T09:51:10;2.97;;;2.78;;
39740;SDS011;25426;53.478;10.190;2022-07-01T09:53:43;4.88;;;3.20;;
39740;SDS011;25426;53.478;10.190;2022-07-01T09:56:14;3.42;;;3.08;;
39740;SDS011;25426;53.478;10.190;2022-07-01T09:58:45;8.52;;;2.88;;
39740;SDS011;25426;53.478;10.190;2022-07-01T10:01:15;3.58;;;2.83;;
39740;SDS011;25426;53.478;10.190;2022-07-01T10:03:47;3.28;;;2.95;;
39740;SDS011;25426;53.478;10.190;2022-07-01T10:06:24;5.05;;;3.40;;
39740;SDS011;25426;53.478;10.190;2022-07-01T10:09:43;4.60;;;3.20;;
39740;SDS011;25426;53.478;10.190;2022-07-01T10:12:35;4.57;;;3.50;;
39740;SDS011;25426;53.478;10.190;2022-07-01T10:15:10;4.60;;;3.50;;
39740;SDS011;25426;53.478;10.190;2022-07-01T10:17:43;4.70;;;3.00;;
39740;SDS011;25426;53.478;10.190;2022-07-01T10:20:17;4.55;;;3.17;;
39740;SDS011;25426;53.478;10.190;2022-07-01T10:22:50;4.13;;;3.30;;
39740;SDS011;25426;53.478;10.190;2022-07-01T10:25:39;5.75;;;3.03;;
39740;SDS011;25426;53.478;10.190;2022-07-01T10:28:16;4.88;;;3.35;;
39740;SDS011;25426;53.478;10.190;2022-07-01T10:30:55;5.03;;;3.17;;
39740;SDS011;25426;53.478;10.190;2022-07-01T10:36:33;5.10;;;3.72;;
39740;SDS011;25426;53.478;10.190;2022-07-01T10:44:24;5.60;;;3.58;;
39740;SDS011;25426;53.478;10.190;2022-07-01T10:47:01;4.20;;;3.17;;
39740;SDS011;25426;53.478;10.190;2022-07-01T10:52:12;4.90;;;4.50;;
39740;SDS011;25426;53.478;10.190;2022-07-01T10:54:50;5.65;;;4.35;;
39740;SDS011;25426;53.478;10.190;2022-07-01T10:57:37;4.30;;;3.90;;
39740;SDS011;25426;53.478;10.190;2022-07-01T11:02:43;5.80;;;4.70;;
39740;SDS011;25426;53.478;10.190;2022-07-01T11:05:15;5.45;;;3.70;;
39740;SDS011;25426;53.478;10.190;2022-07-01T11:07:46;6.55;;;4.78;;
39740;SDS011;25426;53.478;10.190;2022-07-01T11:10:17;5.65;;;4.88;;
39740;SDS011;25426;53.478;10.190;2022-07-01T11:12:49;5.82;;;4.80;;
39740;SDS011;25426;53.478;10.190;2022-07-01T11:15:21;7.25;;;4.90;;
39740;SDS011;25426;53.478;10.190;2022-07-01T11:17:52;6.30;;;4.57;;
39740;SDS011;25426;53.478;10.190;2022-07-01T11:20:26;5.35;;;4.25;;
39740;SDS011;25426;53.478;10.190;2022-07-01T11:23:02;5.93;;;4.70;;
39740;SDS011;25426;53.478;10.190;2022-07-01T11:25:33;5.28;;;4.65;;
39740;SDS011;25426;53.478;10.190;2022-07-01T11:28:03;11.55;;;5.70;;
39740;SDS011;25426;53.478;10.190;2022-07-01T11:30:34;7.40;;;5.43;;
39740;SDS011;25426;53.478;10.190;2022-07-01T11:33:05;6.25;;;5.40;;
39740;SDS011;25426;53.478;10.190;2022-07-01T11:35:39;8.38;;;5.45;;
39740;SDS011;25426;53.478;10.190;2022-07-01T11:38:32;6.95;;;6.25;;
39740;SDS011;25426;53.478;10.190;2022-07-01T11:41:22;8.13;;;5.90;;
39740;SDS011;25426;53.478;10.190;2022-07-01T11:43:55;8.00;;;6.22;;
39740;SDS011;25426;53.478;10.190;2022-07-01T11:46:26;7.40;;;6.00;;
39740;SDS011;25426;53.478;10.190;2022-07-01T11:48:57;6.80;;;6.05;;
39740;SDS011;25426;53.478;10.190;2022-07-01T11:51:27;6.93;;;6.22;;
39740;SDS011;25426;53.478;10.190;2022-07-01T11:53:59;7.85;;;6.97;;
39740;SDS011;25426;53.478;10.190;2022-07-01T11:56:31;7.15;;;6.55;;
39740;SDS011;25426;53.478;10.190;2022-07-01T11:59:05;6.63;;;5.93;;
39740;SDS011;25426;53.478;10.190;2022-07-01T12:01:36;6.35;;;5.75;;
39740;SDS011;25426;53.478;10.190;2022-07-01T12:04:08;8.80;;;6.15;;
39740;SDS011;25426;53.478;10.190;2022-07-01T12:06:39;7.28;;;6.13;;
39740;SDS011;25426;53.478;10.190;2022-07-01T12:09:16;9.35;;;8.18;;
39740;SDS011;25426;53.478;10.190;2022-07-01T12:11:49;7.40;;;6.55;;
39740;SDS011;25426;53.478;10.190;2022-07-01T12:14:22;7.10;;;6.35;;
39740;SDS011;25426;53.478;10.190;2022-07-01T12:17:00;8.45;;;7.75;;
39740;SDS011;25426;53.478;10.190;2022-07-01T12:19:39;8.48;;;7.65;;
39740;SDS011;25426;53.478;10.190;2022-07-01T12:22:12;8.82;;;7.60;;
39740;SDS011;25426;53.478;10.190;2022-07-01T12:24:51;8.30;;;7.60;;
39740;SDS011;25426;53.478;10.190;2022-07-01T12:27:34;7.82;;;6.97;;
39740;SDS011;25426;53.478;10.190;2022-07-01T12:30:09;9.27;;;7.40;;
39740;SDS011;25426;53.478;10.190;2022-07-01T12:32:42;8.90;;;7.13;;
39740;SDS011;25426;53.478;10.190;2022-07-01T12:35:22;7.60;;;6.90;;
39740;SDS011;25426;53.478;10.190;2022-07-01T12:38:14;8.70;;;7.50;;
39740;SDS011;25426;53.478;10.190;2022-07-01T12:40:46;7.32;;;6.63;;
39740;SDS011;25426;53.478;10.190;2022-07-01T12:43:27;8.65;;;7.80;;
39740;SDS011;25426;53.478;10.190;2022-07-01T12:46:01;10.85;;;7.45;;
39740;SDS011;25426;53.478;10.190;2022-07-01T12:48:47;8.10;;;7.40;;
39740;SDS011;25426;53.478;10.190;2022-07-01T12:51:18;7.28;;;6.57;;
39740;SDS011;25426;53.478;10.190;2022-07-01T12:53:49;7.40;;;6.80;;
39740;SDS011;25426;53.478;10.190;2022-07-01T12:56:24;7.45;;;6.72;;
39740;SDS011;25426;53.478;10.190;2022-07-01T12:58:57;7.85;;;6.93;;
39740;SDS011;25426;53.478;10.190;2022-07-01T13:01:27;8.70;;;7.30;;
39740;SDS011;25426;53.478;10.190;2022-07-01T13:03:58;8.13;;;7.35;;
39740;SDS011;25426;53.478;10.190;2022-07-01T13:06:29;7.75;;;5.95;;
39740;SDS011;25426;53.478;10.190;2022-07-01T13:09:00;7.25;;;5.63;;
39740;SDS011;25426;53.478;10.190;2022-07-01T13:11:31;6.30;;;5.75;;
39740;SDS011;25426;53.478;10.190;2022-07-01T13:14:01;9.95;;;6.53;;
39740;SDS011;25426;53.478;10.190;2022-07-01T13:16:32;8.93;;;7.28;;
39740;SDS011;25426;53.478;10.190;2022-07-01T13:19:03;8.02;;;6.15;;
39740;SDS011;25426;53.478;10.190;2022-07-01T13:21:34;7.95;;;7.20;;
39740;SDS011;25426;53.478;10.190;2022-07-01T13:24:05;9.55;;;7.78;;
39740;SDS011;25426;53.478;10.190;2022-07-01T13:26:38;6.20;;;5.53;;
39740;SDS011;25426;53.478;10.190;2022-07-01T13:29:10;6.40;;;5.13;;
39740;SDS011;25426;53.478;10.190;2022-07-01T13:31:41;6.10;;;5.50;;
39740;SDS011;25426;53.478;10.190;2022-07-01T13:34:11;5.65;;;5.10;;
39740;SDS011;25426;53.478;10.190;2022-07-01T13:36:42;7.43;;;5.55;;
39740;SDS011;25426;53.478;10.190;2022-07-01T13:39:13;4.43;;;3.78;;
39740;SDS011;25426;53.478;10.190;2022-07-01T13:41:44;5.50;;;5.00;;
39740;SDS011;25426;53.478;10.190;2022-07-01T13:44:15;5.55;;;3.88;;
39740;SDS011;25426;53.478;10.190;2022-07-01T13:46:45;5.07;;;4.00;;
39740;SDS011;25426;53.478;10.190;2022-07-01T13:49:16;5.05;;;3.90;;
39740;SDS011;25426;53.478;10.190;2022-07-01T13:51:47;4.03;;;3.63;;
39740;SDS011;25426;53.478;10.190;2022-07-01T13:54:18;5.03;;;3.60;;
39740;SDS011;25426;53.478;10.190;2022-07-01T13:56:49;3.45;;;2.90;;
39740;SDS011;25426;53.478;10.190;2022-07-01T13:59:19;3.67;;;3.20;;
39740;SDS011;25426;53.478;10.190;2022-07-01T14:01:50;4.30;;;3.35;;
39740;SDS011;25426;53.478;10.190;2022-07-01T14:04:21;4.40;;;4.05;;
39740;SDS011;25426;53.478;10.190;2022-07-01T14:06:52;5.68;;;4.40;;
39740;SDS011;25426;53.478;10.190;2022-07-01T14:09:23;5.65;;;5.07;;
39740;SDS011;25426;53.478;10.190;2022-07-01T14:11:54;5.95;;;5.22;;
39740;SDS011;25426;53.478;10.190;2022-07-01T14:14:25;4.53;;;4.13;;
39740;SDS011;25426;53.478;10.190;2022-07-01T14:16:56;4.63;;;4.25;;
39740;SDS011;25426;53.478;10.190;2022-07-01T14:19:27;5.25;;;4.75;;
39740;SDS011;25426;53.478;10.190;2022-07-01T14:21:58;4.45;;;4.03;;
39740;SDS011;25426;53.478;10.190;2022-07-01T14:24:29;5.10;;;3.97;;
39740;SDS011;25426;53.478;10.190;2022-07-01T14:27:00;5.22;;;3.67;;
39740;SDS011;25426;53.478;10.190;2022-07-01T14:29:31;6.70;;;4.53;;
39740;SDS011;25426;53.478;10.190;2022-07-01T14:32:02;6.47;;;5.00;;
39740;SDS011;25426;53.478;10.190;2022-07-01T14:34:33;6.13;;;4.95;;
39740;SDS011;25426;53.478;10.190;2022-07-01T14:37:04;6.20;;;5.60;;
39740;SDS011;25426;53.478;10.190;2022-07-01T14:39:35;7.13;;;5.97;;
39740;SDS011;25426;53.478;10.190;2022-07-01T14:42:05;7.07;;;5.50;;
39740;SDS011;25426;53.478;10.190;2022-07-01T14:44:36;8.38;;;5.40;;
39740;SDS011;25426;53.478;10.190;2022-07-01T14:47:07;6.10;;;5.15;;
39740;SDS011;25426;53.478;10.190;2022-07-01T14:49:38;5.47;;;4.97;;
39740;SDS011;25426;53.478;10.190;2022-07-01T14:52:08;4.88;;;4.10;;
39740;SDS011;25426;53.478;10.190;2022-07-01T14:54:40;5.13;;;4.50;;
39740;SDS011;25426;53.478;10.190;2022-07-01T14:57:11;5.97;;;4.50;;
39740;SDS011;25426;53.478;10.190;2022-07-01T14:59:42;5.82;;;4.30;;
39740;SDS011;25426;53.478;10.190;2022-07-01T15:02:12;5.53;;;4.82;;
39740;SDS011;25426;53.478;10.190;2022-07-01T15:04:43;5.82;;;5.32;;
39740;SDS011;25426;53.478;10.190;2022-07-01T15:07:16;6.18;;;5.57;;
39740;SDS011;25426;53.478;10.190;2022-07-01T15:09:47;6.63;;;5.55;;
39740;SDS011;25426;53.478;10.190;2022-07-01T15:12:18;6.50;;;4.55;;
39740;SDS011;25426;53.478;10.190;2022-07-01T15:14:48;6.45;;;5.85;;
39740;SDS011;25426;53.478;10.190;2022-07-01T15:17:19;5.78;;;5.18;;